Time;durP1;ratioP1;P1;durP2;ratioP2;P2;SDS_P1;SDS_P2;PMS_P1;PMS_P2;Temp;Humidity;BMP_temperature;BMP_pressure;BME280_temperature;BME280_humidity;BME280_pressure;Samples;Min_cycle;Max_cycle;Signal;HPM_P1;HPM_P2
2024/01/09 00:00:10;;;;;;;11.30;4.82;;;2.30;99.90;;;;;;5034577;28;20041;-60
2024/01/09 00:02:37;;;;;;;12.93;4.72;;;2.30;99.90;;;;;;5034324;28;20045;-60
2024/01/09 00:05:04;;;;;;;14.95;4.90;;;2.30;99.90;;;;;;5034543;28;20112;-60
2024/01/09 00:07:31;;;;;;;11.57;4.85;;;2.30;99.90;;;;;;5034265;28;20111;-60
2024/01/09 00:09:58;;;;;;;9.55;4.20;;;2.30;99.90;;;;;;5034209;28;20037;-60
2024/01/09 00:12:24;;;;;;;13.50;4.70;;;2.30;99.90;;;;;;5034267;28;20072;-62
2024/01/09 00:14:51;;;;;;;9.50;5.28;;;2.30;99.90;;;;;;5034287;28;20510;-61
2024/01/09 00:17:18;;;;;;;12.35;5.20;;;2.30;99.90;;;;;;5034184;28;20124;-60
2024/01/09 00:19:45;;;;;;;8.98;4.45;;;2.30;99.90;;;;;;5033779;28;20049;-61
2024/01/09 00:22:12;;;;;;;24.40;6.07;;;2.30;99.90;;;;;;5032933;28;20041;-60
2024/01/09 00:24:39;;;;;;;11.27;4.53;;;2.30;99.90;;;;;;5034239;28;20112;-60
2024/01/09 00:27:06;;;;;;;10.23;3.92;;;2.30;99.90;;;;;;5033366;28;20060;-66
2024/01/09 00:29:34;;;;;;;9.10;4.70;;;2.30;99.90;;;;;;5033912;28;20125;-66
2024/01/09 00:32:02;;;;;;;5.85;3.67;;;2.30;99.90;;;;;;5033776;28;20046;-65
2024/01/09 00:34:28;;;;;;;9.20;4.40;;;2.20;99.90;;;;;;5032890;28;20037;-64
2024/01/09 00:36:55;;;;;;;13.27;4.90;;;2.20;99.90;;;;;;5034104;28;20107;-65
2024/01/09 00:39:22;;;;;;;10.13;4.72;;;2.20;99.90;;;;;;5033858;28;20052;-65
2024/01/09 00:41:49;;;;;;;9.05;4.65;;;2.30;99.90;;;;;;5032907;28;20088;-65
2024/01/09 00:44:16;;;;;;;10.25;4.97;;;2.30;99.90;;;;;;5033953;28;20049;-65
2024/01/09 00:46:42;;;;;;;12.88;5.78;;;2.40;99.90;;;;;;5033871;28;20049;-65
2024/01/09 00:49:09;;;;;;;10.63;4.30;;;2.30;99.90;;;;;;5033607;28;20046;-65
2024/01/09 00:51:36;;;;;;;13.60;4.50;;;2.30;99.90;;;;;;5033657;28;20096;-65
2024/01/09 00:54:03;;;;;;;10.73;4.50;;;2.30;99.90;;;;;;5033472;28;20144;-66
2024/01/09 00:56:30;;;;;;;9.63;4.85;;;2.40;99.90;;;;;;5033780;28;20532;-66
2024/01/09 00:58:57;;;;;;;12.48;4.68;;;2.30;99.90;;;;;;5033677;28;20049;-65
2024/01/09 01:01:23;;;;;;;12.93;4.75;;;2.30;99.90;;;;;;5033563;28;20095;-66
2024/01/09 01:03:50;;;;;;;9.98;4.63;;;2.30;99.90;;;;;;5033649;28;20490;-64
2024/01/09 01:06:17;;;;;;;12.13;4.63;;;2.30;99.90;;;;;;5033811;28;20052;-64
2024/01/09 01:08:44;;;;;;;9.88;4.30;;;2.30;99.90;;;;;;5033465;28;20052;-66
2024/01/09 01:11:11;;;;;;;8.00;4.25;;;2.30;99.90;;;;;;5033374;28;20099;-66
2024/01/09 01:13:38;;;;;;;10.25;4.43;;;2.30;99.90;;;;;;5033449;28;20034;-60
2024/01/09 01:16:04;;;;;;;12.50;4.25;;;2.30;99.90;;;;;;5033460;28;20121;-60
2024/01/09 01:18:32;;;;;;;13.35;4.65;;;2.30;99.90;;;;;;5033261;28;20124;-60
2024/01/09 01:20:59;;;;;;;10.73;3.85;;;2.30;99.90;;;;;;5033652;28;20064;-61
2024/01/09 01:23:26;;;;;;;11.20;4.47;;;2.30;99.90;;;;;;5033190;28;20081;-60
2024/01/09 01:25:53;;;;;;;11.65;4.25;;;2.30;99.90;;;;;;5033338;28;20044;-61
2024/01/09 01:28:20;;;;;;;8.88;4.00;;;2.30;99.90;;;;;;5033150;28;20379;-60
2024/01/09 01:30:47;;;;;;;9.25;4.13;;;2.40;99.90;;;;;;5033218;28;20450;-60
2024/01/09 01:33:13;;;;;;;10.57;4.35;;;2.30;99.90;;;;;;5033307;28;20091;-60
2024/01/09 01:35:40;;;;;;;25.92;6.40;;;2.30;99.90;;;;;;5033209;28;20037;-60
2024/01/09 01:38:07;;;;;;;12.48;4.57;;;2.30;99.90;;;;;;5033301;28;20072;-60
2024/01/09 01:40:34;;;;;;;12.00;4.47;;;2.30;99.90;;;;;;5035545;28;20045;-65
2024/01/09 01:43:01;;;;;;;10.95;4.63;;;2.30;99.90;;;;;;5037136;28;20041;-65
2024/01/09 01:45:28;;;;;;;12.90;4.45;;;2.30;99.90;;;;;;5035966;28;20041;-64
2024/01/09 01:47:55;;;;;;;11.27;4.28;;;2.30;99.90;;;;;;5036953;28;20045;-66
2024/01/09 01:50:22;;;;;;;10.38;4.40;;;2.30;99.90;;;;;;5036935;28;20475;-66
2024/01/09 01:52:48;;;;;;;9.63;4.93;;;2.30;99.90;;;;;;5036925;28;20041;-65
2024/01/09 01:55:15;;;;;;;10.23;4.32;;;2.40;99.90;;;;;;5037237;28;20045;-66
2024/01/09 01:57:42;;;;;;;8.65;4.90;;;2.40;99.90;;;;;;5036776;28;20037;-60
2024/01/09 02:00:09;;;;;;;11.75;4.47;;;2.40;99.90;;;;;;5036873;28;20486;-60
2024/01/09 02:02:36;;;;;;;12.35;4.53;;;2.40;99.90;;;;;;5036832;28;20042;-62
2024/01/09 02:05:03;;;;;;;9.60;4.57;;;2.40;99.90;;;;;;5036744;28;20132;-60
2024/01/09 02:07:30;;;;;;;7.72;4.00;;;2.30;99.90;;;;;;5036825;28;20464;-61
2024/01/09 02:09:57;;;;;;;9.77;4.25;;;2.30;99.90;;;;;;5036544;28;20069;-60
2024/01/09 02:12:23;;;;;;;13.43;4.68;;;2.40;99.90;;;;;;5036806;28;20441;-60
2024/01/09 02:14:50;;;;;;;10.57;4.43;;;2.40;99.90;;;;;;5036322;28;20049;-60
2024/01/09 02:17:17;;;;;;;12.13;4.60;;;2.40;99.90;;;;;;5036835;28;20451;-60
2024/01/09 02:19:44;;;;;;;9.60;4.20;;;2.30;99.90;;;;;;5036111;28;20054;-60
2024/01/09 02:22:11;;;;;;;9.45;4.82;;;2.40;99.90;;;;;;5035195;28;20053;-60
2024/01/09 02:24:38;;;;;;;10.20;4.32;;;2.40;99.90;;;;;;5036192;28;20099;-62
2024/01/09 02:27:04;;;;;;;11.52;4.57;;;2.40;99.90;;;;;;5036403;28;20034;-60
2024/01/09 02:29:31;;;;;;;13.00;4.85;;;2.40;99.90;;;;;;5036576;28;20037;-60
2024/01/09 02:31:58;;;;;;;9.25;4.60;;;2.40;99.90;;;;;;5035473;28;20033;-60
2024/01/09 02:34:25;;;;;;;8.38;4.22;;;2.40;99.90;;;;;;5036362;28;20037;-60
2024/01/09 02:36:52;;;;;;;9.68;4.38;;;2.40;99.90;;;;;;5036123;28;20041;-60
2024/01/09 02:39:19;;;;;;;8.25;4.13;;;2.40;99.90;;;;;;5036391;28;20051;-61
2024/01/09 02:41:46;;;;;;;10.88;4.70;;;2.40;99.90;;;;;;5036327;28;20045;-60
2024/01/09 02:44:14;;;;;;;6.90;3.90;;;2.40;99.90;;;;;;5035646;28;20037;-61
2024/01/09 02:46:41;;;;;;;10.77;4.35;;;2.30;99.90;;;;;;5036068;28;20460;-60
2024/01/09 02:49:08;;;;;;;7.93;4.05;;;2.30;99.90;;;;;;5034217;28;20077;-60
2024/01/09 02:51:35;;;;;;;8.05;4.60;;;2.30;99.90;;;;;;5035162;28;20443;-60
2024/01/09 02:54:01;;;;;;;11.88;5.60;;;2.30;99.90;;;;;;5035655;28;20067;-60
2024/01/09 02:56:29;;;;;;;11.82;4.20;;;2.30;99.90;;;;;;5035582;28;20096;-60
2024/01/09 02:58:55;;;;;;;11.88;5.00;;;2.30;99.90;;;;;;5035411;28;20038;-60
2024/01/09 03:01:22;;;;;;;8.63;4.25;;;2.30;99.90;;;;;;5035674;28;20042;-60
2024/01/09 03:03:49;;;;;;;9.65;4.28;;;2.30;99.90;;;;;;5035961;28;20124;-65
2024/01/09 03:06:16;;;;;;;9.75;4.15;;;2.30;99.90;;;;;;5035977;28;20041;-66
2024/01/09 03:08:43;;;;;;;9.10;4.32;;;2.30;99.90;;;;;;5035621;28;20042;-61
2024/01/09 03:11:10;;;;;;;11.73;4.05;;;2.30;99.90;;;;;;5035785;28;20473;-61
2024/01/09 03:13:37;;;;;;;12.55;4.13;;;2.30;99.90;;;;;;5035154;28;20389;-61
2024/01/09 03:16:03;;;;;;;9.52;4.13;;;2.30;99.90;;;;;;5035360;28;20052;-60
2024/01/09 03:18:30;;;;;;;9.23;4.90;;;2.30;99.90;;;;;;5034065;28;20053;-60
2024/01/09 03:20:57;;;;;;;11.02;4.07;;;2.30;99.90;;;;;;5035431;28;20069;-60
2024/01/09 03:23:24;;;;;;;11.82;4.95;;;2.30;99.90;;;;;;5033682;28;20129;-61
2024/01/09 03:25:51;;;;;;;13.85;4.43;;;2.30;99.90;;;;;;5035197;28;20111;-66
2024/01/09 03:28:17;;;;;;;10.25;4.45;;;2.30;99.90;;;;;;5035248;28;20068;-66
2024/01/09 03:30:44;;;;;;;9.32;4.38;;;2.30;99.90;;;;;;5035039;28;20088;-67
2024/01/09 03:33:11;;;;;;;8.85;4.13;;;2.30;99.90;;;;;;5035028;28;20056;-66
2024/01/09 03:35:38;;;;;;;9.82;4.03;;;2.30;99.90;;;;;;5035443;28;20120;-66
2024/01/09 03:38:05;;;;;;;9.50;4.50;;;2.30;99.90;;;;;;5035167;28;20474;-66
2024/01/09 03:40:32;;;;;;;10.50;4.30;;;2.30;99.90;;;;;;5034738;28;20049;-66
2024/01/09 03:42:59;;;;;;;9.52;4.22;;;2.30;99.90;;;;;;5034858;28;20045;-67
2024/01/09 03:45:25;;;;;;;10.50;4.63;;;2.30;99.90;;;;;;5035076;28;20172;-66
2024/01/09 03:47:52;;;;;;;9.20;4.40;;;2.30;99.90;;;;;;5034556;28;20048;-66
2024/01/09 03:50:19;;;;;;;9.20;4.88;;;2.30;99.90;;;;;;5035041;28;20038;-66
2024/01/09 03:52:46;;;;;;;11.00;4.63;;;2.30;99.90;;;;;;5033620;28;20391;-65
2024/01/09 03:55:14;;;;;;;11.20;6.00;;;2.30;99.90;;;;;;5034352;28;20479;-66
2024/01/09 03:57:41;;;;;;;9.48;4.25;;;2.30;99.90;;;;;;5034424;28;20116;-66
2024/01/09 04:00:08;;;;;;;10.55;4.80;;;2.30;99.90;;;;;;5033083;28;20061;-66
2024/01/09 04:02:35;;;;;;;13.32;4.70;;;2.30;99.90;;;;;;5034091;28;20048;-66
2024/01/09 04:05:02;;;;;;;9.35;4.72;;;2.30;99.90;;;;;;5034293;28;20041;-66
2024/01/09 04:07:28;;;;;;;11.88;4.30;;;2.30;99.90;;;;;;5034380;28;20065;-66
2024/01/09 04:09:55;;;;;;;11.60;4.53;;;2.20;99.90;;;;;;5032801;28;20041;-65
2024/01/09 04:12:22;;;;;;;8.77;4.53;;;2.20;99.90;;;;;;5032943;28;20125;-66
2024/01/09 04:14:49;;;;;;;11.43;4.32;;;2.30;99.90;;;;;;5034007;28;20034;-66
2024/01/09 04:17:15;;;;;;;12.63;4.80;;;2.30;99.90;;;;;;5034301;28;20462;-67
2024/01/09 04:19:42;;;;;;;7.45;4.60;;;2.30;99.90;;;;;;5033834;28;20049;-67
2024/01/09 04:22:09;;;;;;;10.68;4.45;;;2.30;99.90;;;;;;5034481;28;20041;-67
2024/01/09 04:24:36;;;;;;;12.43;4.68;;;2.30;99.90;;;;;;5033905;28;20041;-67
2024/01/09 04:27:03;;;;;;;10.68;4.70;;;2.30;99.90;;;;;;5032765;28;20076;-67
2024/01/09 04:29:29;;;;;;;8.20;4.55;;;2.30;99.90;;;;;;5034244;28;20088;-67
2024/01/09 04:31:57;;;;;;;13.50;4.53;;;2.30;99.90;;;;;;5034255;28;20068;-66
2024/01/09 04:34:23;;;;;;;8.60;4.82;;;2.30;99.90;;;;;;5034097;28;20058;-67
2024/01/09 04:36:50;;;;;;;9.50;4.93;;;2.30;99.90;;;;;;5033192;28;20100;-67
2024/01/09 04:39:17;;;;;;;10.35;5.00;;;2.30;99.90;;;;;;5033856;28;20049;-67
2024/01/09 04:41:44;;;;;;;10.10;4.65;;;2.30;99.90;;;;;;5033984;28;20451;-61
2024/01/09 04:44:11;;;;;;;11.30;4.85;;;2.30;99.90;;;;;;5033925;28;20096;-61
2024/01/09 04:46:37;;;;;;;12.85;4.40;;;2.30;99.90;;;;;;5033906;28;20060;-61
2024/01/09 04:49:04;;;;;;;11.13;4.47;;;2.30;99.90;;;;;;5033923;28;20038;-61
2024/01/09 04:51:32;;;;;;;10.52;4.40;;;2.20;99.90;;;;;;5034073;28;20037;-61
2024/01/09 04:53:58;;;;;;;13.13;4.63;;;2.20;99.90;;;;;;5033403;28;20030;-61
2024/01/09 04:56:25;;;;;;;16.35;5.00;;;2.30;99.90;;;;;;5033647;28;20064;-61
2024/01/09 04:58:53;;;;;;;11.88;4.38;;;2.20;99.90;;;;;;5032603;28;20530;-61
2024/01/09 05:01:21;;;;;;;10.40;4.68;;;2.20;99.90;;;;;;5033577;28;20474;-61
2024/01/09 05:03:48;;;;;;;13.20;4.82;;;2.30;99.90;;;;;;5033584;28;20045;-60
2024/01/09 05:06:15;;;;;;;9.30;4.07;;;2.30;99.90;;;;;;5033840;28;20467;-61
2024/01/09 05:08:42;;;;;;;9.98;5.30;;;2.30;99.90;;;;;;5033131;28;20558;-61
2024/01/09 05:11:09;;;;;;;11.10;4.55;;;2.20;99.90;;;;;;5032478;28;20044;-61
2024/01/09 05:13:35;;;;;;;13.10;5.15;;;2.30;99.90;;;;;;5033066;28;20034;-61
2024/01/09 05:16:02;;;;;;;10.95;4.93;;;2.30;99.90;;;;;;5033773;28;20045;-61
2024/01/09 05:18:29;;;;;;;10.20;4.53;;;2.20;99.90;;;;;;5033577;28;20366;-61
2024/01/09 05:20:56;;;;;;;13.15;4.90;;;2.20;99.90;;;;;;5033342;28;20390;-61
2024/01/09 05:23:23;;;;;;;12.27;4.40;;;2.20;99.90;;;;;;5033307;28;20513;-61
2024/01/09 05:25:49;;;;;;;13.65;4.38;;;2.30;99.90;;;;;;5033452;28;20049;-62
2024/01/09 05:28:16;;;;;;;16.65;4.93;;;2.30;99.90;;;;;;5032226;28;20367;-61
2024/01/09 05:30:43;;;;;;;8.40;4.68;;;2.30;99.90;;;;;;5033094;28;20037;-61
2024/01/09 05:33:10;;;;;;;10.80;4.65;;;2.30;99.90;;;;;;5033153;28;20390;-61
2024/01/09 05:35:37;;;;;;;8.23;4.40;;;2.30;99.90;;;;;;5033385;28;20045;-61
2024/01/09 05:38:04;;;;;;;9.93;4.70;;;2.30;99.90;;;;;;5032239;28;20425;-61
2024/01/09 05:40:43;;;;;;;11.85;5.63;;;2.30;99.90;;;;;;5034024;28;20044;-61
2024/01/09 05:43:10;;;;;;;12.65;4.40;;;2.30;99.90;;;;;;5033603;28;20041;-66
2024/01/09 05:45:37;;;;;;;12.27;4.43;;;2.30;99.90;;;;;;5033695;28;20053;-67
2024/01/09 05:48:04;;;;;;;10.55;4.28;;;2.30;99.90;;;;;;5033776;28;20044;-67
2024/01/09 05:50:31;;;;;;;13.80;4.50;;;2.30;99.90;;;;;;5033605;28;20052;-67
2024/01/09 05:52:58;;;;;;;10.85;4.10;;;2.30;99.90;;;;;;5033074;28;20088;-67
2024/01/09 05:55:24;;;;;;;9.32;4.65;;;2.30;99.90;;;;;;5033094;28;20042;-61
2024/01/09 05:57:51;;;;;;;10.48;4.30;;;2.30;99.90;;;;;;5033322;28;20045;-61
2024/01/09 06:00:18;;;;;;;11.82;4.68;;;2.30;99.90;;;;;;5033058;28;20409;-61
2024/01/09 06:02:45;;;;;;;12.88;4.25;;;2.30;99.90;;;;;;5033049;28;20046;-60
2024/01/09 06:05:12;;;;;;;12.40;5.00;;;2.30;99.90;;;;;;5032927;28;20103;-60
2024/01/09 06:07:39;;;;;;;13.73;4.55;;;2.30;99.90;;;;;;5032875;28;20045;-61
2024/01/09 06:10:06;;;;;;;10.85;4.50;;;2.30;99.90;;;;;;5033042;28;20076;-61
2024/01/09 06:12:33;;;;;;;10.23;4.40;;;2.20;99.90;;;;;;5032891;28;20041;-60
2024/01/09 06:14:59;;;;;;;11.60;4.43;;;2.30;99.90;;;;;;5032606;28;20048;-60
2024/01/09 06:17:26;;;;;;;9.63;4.43;;;2.30;99.90;;;;;;5031733;28;20405;-61
2024/01/09 06:19:53;;;;;;;11.73;4.68;;;2.30;99.90;;;;;;5032332;28;20057;-60
2024/01/09 06:22:20;;;;;;;9.75;4.40;;;2.40;99.90;;;;;;5031968;28;20056;-61
2024/01/09 06:24:47;;;;;;;7.78;4.22;;;2.30;99.90;;;;;;5032771;28;20045;-61
2024/01/09 06:27:14;;;;;;;11.88;4.97;;;2.30;99.90;;;;;;5034048;28;20053;-60
2024/01/09 06:29:41;;;;;;;9.90;4.05;;;2.30;99.90;;;;;;5036294;28;20038;-61
2024/01/09 06:32:08;;;;;;;10.75;4.20;;;2.30;99.90;;;;;;5036344;28;20052;-61
2024/01/09 06:34:36;;;;;;;10.73;4.22;;;2.30;99.90;;;;;;5035938;28;20478;-61
2024/01/09 06:37:03;;;;;;;9.30;3.90;;;2.30;99.90;;;;;;5036003;28;20045;-61
2024/01/09 06:39:30;;;;;;;11.48;4.35;;;2.20;99.90;;;;;;5036213;28;20046;-61
2024/01/09 06:41:57;;;;;;;13.32;3.95;;;2.20;99.90;;;;;;5036233;28;20049;-65
2024/01/09 06:44:24;;;;;;;10.27;3.97;;;2.20;99.90;;;;;;5036636;28;20045;-66
2024/01/09 06:46:50;;;;;;;10.20;4.25;;;2.20;99.90;;;;;;5036507;28;20049;-61
2024/01/09 06:49:17;;;;;;;10.38;4.32;;;2.20;99.90;;;;;;5036564;28;20037;-61
2024/01/09 06:51:45;;;;;;;13.85;4.35;;;2.20;99.90;;;;;;5035994;28;20045;-62
2024/01/09 06:54:12;;;;;;;9.20;4.47;;;2.20;99.90;;;;;;5035879;28;20043;-61
2024/01/09 06:56:39;;;;;;;9.55;4.97;;;2.20;99.90;;;;;;5034652;28;20045;-61
2024/01/09 06:59:06;;;;;;;14.95;4.38;;;2.20;99.90;;;;;;5035685;28;20052;-61
2024/01/09 07:01:35;;;;;;;14.05;4.68;;;2.20;99.90;;;;;;5035961;28;20508;-61
2024/01/09 07:04:03;;;;;;;11.10;4.18;;;2.20;99.90;;;;;;5035559;28;20049;-61
2024/01/09 07:06:30;;;;;;;12.63;4.15;;;2.20;99.90;;;;;;5035769;28;20045;-61
2024/01/09 07:08:57;;;;;;;11.50;3.95;;;2.20;99.90;;;;;;5035632;28;20359;-66
2024/01/09 07:11:23;;;;;;;10.75;4.47;;;2.20;99.90;;;;;;5035905;28;20046;-67
2024/01/09 07:13:50;;;;;;;12.95;4.30;;;2.20;99.90;;;;;;5035517;28;20037;-66
2024/01/09 07:16:17;;;;;;;14.27;4.50;;;2.20;99.90;;;;;;5017952;28;20426;-67
2024/01/09 07:18:44;;;;;;;13.48;4.40;;;2.20;99.90;;;;;;5035266;28;20096;-60
2024/01/09 07:21:11;;;;;;;12.77;4.18;;;2.10;99.90;;;;;;5035509;28;20107;-61
2024/01/09 07:23:38;;;;;;;10.95;5.07;;;2.10;99.90;;;;;;5015100;28;20056;-61
2024/01/09 07:26:05;;;;;;;12.02;4.57;;;2.10;99.90;;;;;;5014266;28;20426;-61
2024/01/09 07:28:32;;;;;;;11.75;4.78;;;2.10;99.90;;;;;;5035025;28;20061;-61
2024/01/09 07:30:58;;;;;;;17.80;5.15;;;2.10;99.90;;;;;;5035189;28;20041;-61
2024/01/09 07:33:25;;;;;;;10.05;4.45;;;2.10;99.90;;;;;;5034970;28;20124;-61
2024/01/09 07:35:52;;;;;;;11.60;4.60;;;2.20;99.90;;;;;;5035380;28;20038;-67
2024/01/09 07:38:23;;;;;;;10.52;4.50;;;2.20;99.90;;;;;;5034115;28;20037;-66
2024/01/09 07:40:51;;;;;;;11.93;4.90;;;2.10;99.90;;;;;;5035307;28;20375;-67
2024/01/09 07:43:17;;;;;;;7.68;4.43;;;2.10;99.90;;;;;;5032649;28;20095;-67
2024/01/09 07:45:44;;;;;;;11.45;4.93;;;2.10;99.90;;;;;;5033251;28;20061;-67
2024/01/09 07:48:11;;;;;;;9.95;4.45;;;2.10;99.90;;;;;;5015310;28;20050;-67
2024/01/09 07:50:38;;;;;;;10.35;5.05;;;2.10;99.90;;;;;;5022130;28;20091;-67
2024/01/09 07:53:05;;;;;;;9.98;5.03;;;2.10;99.90;;;;;;5018422;28;20428;-60
2024/01/09 07:55:32;;;;;;;10.60;4.90;;;2.10;99.90;;;;;;5022939;28;20041;-60
2024/01/09 07:57:59;;;;;;;13.63;5.38;;;2.10;99.90;;;;;;5014774;28;20045;-60
2024/01/09 08:00:26;;;;;;;12.27;5.22;;;2.10;99.90;;;;;;5016656;28;20128;-59
2024/01/09 08:02:53;;;;;;;10.77;5.50;;;2.10;99.90;;;;;;5031573;28;20052;-61
2024/01/09 08:05:20;;;;;;;11.65;4.80;;;2.10;99.90;;;;;;5022902;28;20537;-66
2024/01/09 08:07:47;;;;;;;10.00;5.18;;;2.10;99.90;;;;;;5032224;28;20049;-66
2024/01/09 08:10:14;;;;;;;11.77;4.70;;;2.10;99.90;;;;;;5025514;28;20475;-67
2024/01/09 08:12:40;;;;;;;10.05;4.90;;;2.20;99.90;;;;;;5014168;28;20046;-67
2024/01/09 08:15:07;;;;;;;12.55;4.82;;;2.10;99.90;;;;;;5019749;28;20043;-61
2024/01/09 08:17:34;;;;;;;16.23;5.40;;;2.10;99.90;;;;;;5027747;28;20045;-62
2024/01/09 08:20:03;;;;;;;13.85;5.72;;;2.10;99.90;;;;;;5026327;28;20814;-60
2024/01/09 08:22:30;;;;;;;11.75;5.30;;;2.10;99.90;;;;;;5013974;28;20502;-61
2024/01/09 08:24:57;;;;;;;11.85;5.45;;;2.00;99.90;;;;;;5017559;28;20055;-61
2024/01/09 08:27:24;;;;;;;9.88;4.82;;;2.00;99.90;;;;;;5014137;28;20045;-61
2024/01/09 08:29:51;;;;;;;9.73;5.00;;;2.00;99.90;;;;;;5016365;28;20041;-61
2024/01/09 08:32:18;;;;;;;11.43;5.13;;;1.90;99.90;;;;;;5013722;28;20042;-61
2024/01/09 08:34:45;;;;;;;9.77;5.60;;;1.90;99.90;;;;;;5015165;28;20398;-68
2024/01/09 08:37:12;;;;;;;11.02;5.40;;;1.90;99.90;;;;;;5013875;28;20044;-68
2024/01/09 08:39:39;;;;;;;8.95;4.45;;;1.90;99.90;;;;;;5014351;28;20049;-68
2024/01/09 08:42:06;;;;;;;16.70;5.78;;;1.90;99.90;;;;;;5013788;28;20115;-68
2024/01/09 08:44:33;;;;;;;12.60;5.32;;;1.90;99.90;;;;;;5012492;28;20081;-67
2024/01/09 08:47:00;;;;;;;13.27;5.28;;;1.90;99.90;;;;;;5024699;28;20045;-67
2024/01/09 08:49:26;;;;;;;16.35;6.38;;;1.90;99.90;;;;;;5012898;28;20181;-67
2024/01/09 08:51:53;;;;;;;13.43;5.60;;;1.90;99.90;;;;;;5032139;28;20518;-67
2024/01/09 08:54:22;;;;;;;10.70;4.85;;;1.90;99.90;;;;;;5032280;28;20128;-66
2024/01/09 08:56:49;;;;;;;13.63;5.13;;;1.90;99.90;;;;;;5014931;28;20037;-66
2024/01/09 08:59:15;;;;;;;14.60;5.53;;;2.00;99.90;;;;;;5013682;28;20064;-64
2024/01/09 09:01:42;;;;;;;10.73;5.57;;;2.00;99.90;;;;;;5016692;28;20123;-65
2024/01/09 09:04:09;;;;;;;8.75;5.47;;;2.00;99.90;;;;;;5013323;28;20060;-64
2024/01/09 09:06:36;;;;;;;11.30;5.18;;;2.00;99.90;;;;;;5015671;28;20046;-65
2024/01/09 09:09:04;;;;;;;10.80;4.78;;;2.00;99.90;;;;;;5013366;28;20049;-64
2024/01/09 09:11:32;;;;;;;10.45;4.88;;;2.00;99.90;;;;;;5017950;28;20037;-64
2024/01/09 09:13:59;;;;;;;11.20;4.35;;;2.00;99.90;;;;;;5013103;28;20040;-64
2024/01/09 09:16:29;;;;;;;11.75;5.07;;;2.10;99.90;;;;;;5019837;28;20050;-65
2024/01/09 09:18:56;;;;;;;10.15;4.55;;;2.10;99.90;;;;;;5032287;28;20049;-64
2024/01/09 09:21:23;;;;;;;11.68;5.20;;;2.10;99.90;;;;;;5018289;28;20380;-64
2024/01/09 09:23:50;;;;;;;10.85;5.10;;;2.10;99.90;;;;;;5032081;28;20475;-65
2024/01/09 09:26:17;;;;;;;11.10;5.15;;;2.10;99.90;;;;;;5020158;28;20034;-60
2024/01/09 09:28:47;;;;;;;10.65;5.10;;;2.20;99.90;;;;;;5013274;28;20049;-59
2024/01/09 09:31:32;;;;;;;15.75;5.78;;;2.20;99.90;;;;;;5019788;28;20042;-60
2024/01/09 09:33:59;;;;;;;12.68;4.85;;;2.20;99.90;;;;;;5024810;28;20042;-60
2024/01/09 09:36:26;;;;;;;18.40;5.43;;;2.20;99.90;;;;;;5019543;28;20034;-60
2024/01/09 09:38:53;;;;;;;11.68;4.75;;;2.20;99.90;;;;;;5013295;28;20069;-60
2024/01/09 09:41:20;;;;;;;10.65;4.72;;;2.20;99.90;;;;;;5015260;28;20045;-60
2024/01/09 09:43:47;;;;;;;9.13;5.00;;;2.20;99.90;;;;;;5012875;28;20073;-61
2024/01/09 09:46:17;;;;;;;13.38;6.05;;;2.20;99.90;;;;;;5021157;28;20540;-61
2024/01/09 09:48:44;;;;;;;11.77;4.50;;;2.20;99.90;;;;;;5030819;28;20052;-61
2024/01/09 09:51:10;;;;;;;10.45;5.35;;;2.20;99.90;;;;;;5022272;28;20100;-61
2024/01/09 09:53:37;;;;;;;10.50;4.63;;;2.20;99.90;;;;;;5013083;28;20042;-66
2024/01/09 09:56:04;;;;;;;9.50;5.20;;;2.20;99.90;;;;;;5019043;28;20045;-66
2024/01/09 09:58:31;;;;;;;12.00;5.30;;;2.20;99.90;;;;;;5012993;28;20041;-65
2024/01/09 10:00:59;;;;;;;15.52;6.10;;;2.20;99.90;;;;;;5023308;28;20053;-66
2024/01/09 10:03:26;;;;;;;11.82;5.47;;;2.20;99.90;;;;;;5009125;28;20053;-65
2024/01/09 10:05:52;;;;;;;11.80;5.03;;;2.10;99.90;;;;;;5020831;28;20411;-65
2024/01/09 10:08:20;;;;;;;12.52;4.97;;;2.20;99.90;;;;;;5016733;28;20360;-65
2024/01/09 10:10:47;;;;;;;12.68;4.82;;;2.10;99.90;;;;;;5018901;28;20129;-65
2024/01/09 10:13:13;;;;;;;11.68;5.25;;;2.20;99.90;;;;;;5032104;28;20060;-65
2024/01/09 10:15:40;;;;;;;12.98;5.25;;;2.10;99.90;;;;;;5027338;28;20038;-65
2024/01/09 10:18:07;;;;;;;13.32;5.68;;;2.10;99.90;;;;;;5031821;28;20116;-65
2024/01/09 10:20:34;;;;;;;11.38;5.00;;;2.10;99.90;;;;;;5027449;28;20137;-65
2024/01/09 10:23:01;;;;;;;15.02;4.88;;;2.10;99.90;;;;;;5016986;28;20491;-65
2024/01/09 10:25:28;;;;;;;10.25;4.57;;;2.20;99.90;;;;;;5016811;28;20046;-65
2024/01/09 10:27:54;;;;;;;11.10;5.00;;;2.20;99.90;;;;;;5017039;28;20045;-65
2024/01/09 10:30:22;;;;;;;14.25;5.03;;;2.20;99.90;;;;;;5027538;28;20076;-65
2024/01/09 10:32:49;;;;;;;12.75;5.55;;;2.30;99.90;;;;;;5024695;28;20129;-65
2024/01/09 10:35:16;;;;;;;12.27;5.18;;;2.30;99.90;;;;;;5028252;28;20408;-65
2024/01/09 10:37:44;;;;;;;10.93;5.13;;;2.30;99.90;;;;;;5035604;28;20159;-65
2024/01/09 10:40:11;;;;;;;9.13;4.63;;;2.30;99.90;;;;;;5035053;28;20072;-65
2024/01/09 10:42:38;;;;;;;10.50;4.32;;;2.40;99.90;;;;;;5016531;28;20041;-65
2024/01/09 10:45:05;;;;;;;11.27;4.50;;;2.30;99.90;;;;;;5016604;28;20038;-65
2024/01/09 10:47:32;;;;;;;11.98;4.82;;;2.40;99.90;;;;;;5034358;28;20428;-66
2024/01/09 10:50:00;;;;;;;13.90;4.40;;;2.40;99.90;;;;;;5035341;28;20037;-66
2024/01/09 10:52:28;;;;;;;7.63;4.05;;;2.50;99.90;;;;;;5018903;28;20081;-66
2024/01/09 10:54:55;;;;;;;11.77;4.57;;;2.50;99.90;;;;;;5016483;28;20045;-66
2024/01/09 10:57:22;;;;;;;7.18;4.15;;;2.50;99.90;;;;;;5015019;28;20542;-66
2024/01/09 10:59:49;;;;;;;12.27;4.72;;;2.50;99.90;;;;;;5030692;28;20049;-68
2024/01/09 11:02:16;;;;;;;11.20;4.28;;;2.60;99.90;;;;;;5033797;28;20064;-66
2024/01/09 11:04:43;;;;;;;9.98;4.30;;;2.60;99.90;;;;;;5035010;28;20123;-66
2024/01/09 11:07:10;;;;;;;9.93;4.65;;;2.60;99.90;;;;;;5021763;28;20042;-66
2024/01/09 11:09:37;;;;;;;9.52;3.88;;;2.70;99.90;;;;;;5022302;28;20045;-65
2024/01/09 11:12:04;;;;;;;13.23;3.90;;;2.70;99.90;;;;;;5026727;28;20041;-66
2024/01/09 11:14:31;;;;;;;9.15;4.30;;;2.70;99.90;;;;;;5034810;28;20060;-66
2024/01/09 11:16:58;;;;;;;10.73;3.42;;;2.70;99.90;;;;;;5030089;28;20073;-66
2024/01/09 11:19:24;;;;;;;7.00;4.25;;;2.70;99.90;;;;;;5015624;28;20375;-66
2024/01/09 11:21:51;;;;;;;11.95;4.38;;;2.80;99.90;;;;;;5031388;28;20045;-67
2024/01/09 11:24:18;;;;;;;10.68;3.80;;;2.80;99.90;;;;;;5021244;28;20046;-68
2024/01/09 11:26:45;;;;;;;9.60;4.28;;;2.80;99.90;;;;;;5021375;28;20517;-67
2024/01/09 11:29:17;;;;;;;17.35;4.15;;;2.90;99.90;;;;;;5016484;28;20128;-67
2024/01/09 11:31:44;;;;;;;10.20;3.78;;;2.90;99.90;;;;;;5022050;28;20496;-60
2024/01/09 11:34:11;;;;;;;8.27;3.92;;;2.90;99.90;;;;;;5034680;28;20034;-59
2024/01/09 11:36:39;;;;;;;8.65;3.78;;;2.90;99.90;;;;;;5031106;28;20042;-60
2024/01/09 11:39:10;;;;;;;10.65;4.03;;;2.90;99.90;;;;;;5026958;28;20498;-61
2024/01/09 11:41:37;;;;;;;11.15;4.15;;;2.90;99.90;;;;;;5034491;28;20044;-60
2024/01/09 11:44:04;;;;;;;6.90;3.67;;;2.90;99.90;;;;;;5031579;28;20145;-60
2024/01/09 11:46:31;;;;;;;10.70;3.42;;;2.90;99.90;;;;;;5034455;28;20049;-60
2024/01/09 11:48:59;;;;;;;9.75;4.00;;;2.90;99.90;;;;;;5022361;28;20506;-60
2024/01/09 11:51:28;;;;;;;10.93;3.67;;;3.00;99.90;;;;;;5034212;28;20041;-60
2024/01/09 11:53:55;;;;;;;9.65;3.55;;;3.00;99.90;;;;;;5034265;28;20122;-60
2024/01/09 11:56:22;;;;;;;10.45;3.53;;;3.00;99.90;;;;;;5033056;28;20049;-60
2024/01/09 11:58:50;;;;;;;8.93;3.20;;;3.00;99.90;;;;;;5033627;28;20044;-60
2024/01/09 12:01:17;;;;;;;10.63;2.72;;;3.00;99.90;;;;;;5034156;28;20049;-59
2024/01/09 12:03:43;;;;;;;9.60;3.53;;;3.00;99.90;;;;;;5032406;28;20095;-59
2024/01/09 12:06:10;;;;;;;6.93;3.30;;;3.10;99.90;;;;;;5016499;28;20506;-66
2024/01/09 12:08:37;;;;;;;9.38;3.17;;;3.10;99.90;;;;;;5021767;28;20080;-66
2024/01/09 12:11:04;;;;;;;10.25;3.13;;;3.10;99.90;;;;;;5014840;28;20479;-65
2024/01/09 12:13:31;;;;;;;8.38;2.85;;;3.20;99.90;;;;;;5029544;28;20037;-65
2024/01/09 12:15:58;;;;;;;9.48;3.03;;;3.20;99.90;;;;;;5033702;28;20410;-64
2024/01/09 12:18:24;;;;;;;6.82;2.78;;;3.20;99.90;;;;;;5033088;28;20048;-65
2024/01/09 12:20:51;;;;;;;8.27;3.20;;;3.20;99.90;;;;;;5016445;28;20053;-66
2024/01/09 12:23:19;;;;;;;9.55;2.72;;;3.20;99.90;;;;;;5014857;28;20049;-66
2024/01/09 12:25:48;;;;;;;8.00;3.33;;;3.10;99.90;;;;;;5018600;28;20045;-67
2024/01/09 12:28:14;;;;;;;12.02;3.50;;;3.20;99.90;;;;;;5033797;28;20100;-68
2024/01/09 12:30:42;;;;;;;9.63;2.90;;;3.20;99.90;;;;;;5032537;28;20053;-68
2024/01/09 12:33:09;;;;;;;8.57;3.08;;;3.20;99.90;;;;;;5021361;28;20045;-65
2024/01/09 12:35:37;;;;;;;6.97;3.00;;;3.30;99.90;;;;;;5014505;28;20038;-66
2024/01/09 12:38:05;;;;;;;9.93;3.30;;;3.30;99.90;;;;;;5014628;28;20045;-65
2024/01/09 12:40:31;;;;;;;10.32;3.78;;;3.40;99.90;;;;;;5030953;28;20091;-65
2024/01/09 12:42:58;;;;;;;10.55;3.40;;;3.40;99.90;;;;;;5033149;28;20072;-66
2024/01/09 12:45:27;;;;;;;9.25;3.22;;;3.40;99.90;;;;;;5033131;28;20513;-68
2024/01/09 12:47:54;;;;;;;12.00;3.10;;;3.40;99.90;;;;;;5022590;28;20057;-68